createdAt,value
2023-10-23T00:00:12.540Z,3.03
2023-10-23T00:02:40.595Z,3.72
2023-10-23T00:05:09.163Z,3.20
2023-10-23T00:07:37.185Z,2.80
2023-10-23T00:10:05.453Z,3.10
2023-10-23T00:12:34.872Z,3.70
2023-10-23T00:15:02.721Z,3.22
2023-10-23T00:17:30.597Z,3.30
2023-10-23T00:19:58.433Z,3.15
2023-10-23T00:22:26.229Z,3.17
2023-10-23T00:24:54.095Z,3.20
2023-10-23T00:27:21.949Z,3.33
2023-10-23T00:29:50.991Z,3.17
2023-10-23T00:32:18.810Z,3.17
2023-10-23T00:34:46.624Z,3.47
2023-10-23T00:37:14.492Z,3.53
2023-10-23T00:39:42.284Z,3.67
2023-10-23T00:42:10.077Z,2.97
2023-10-23T00:44:38.723Z,3.47
2023-10-23T00:47:08.110Z,3.40
2023-10-23T00:49:35.990Z,2.97
2023-10-23T00:52:04.141Z,3.33
2023-10-23T00:54:33.972Z,3.22
2023-10-23T00:57:01.890Z,3.47
2023-10-23T00:59:29.973Z,3.40
2023-10-23T01:01:59.615Z,2.90
2023-10-23T01:04:28.894Z,3.20
2023-10-23T01:06:57.251Z,3.22
2023-10-23T01:09:25.183Z,3.20
2023-10-23T01:11:53.005Z,2.97
2023-10-23T01:14:20.768Z,3.40
2023-10-23T01:16:48.566Z,3.30
2023-10-23T01:19:16.430Z,3.25
2023-10-23T01:21:46.232Z,3.30
2023-10-23T01:24:16.627Z,3.30
2023-10-23T01:26:45.886Z,3.45
2023-10-23T01:29:13.640Z,3.47
2023-10-23T01:31:41.543Z,3.33
2023-10-23T01:34:09.498Z,3.38
2023-10-23T01:36:39.103Z,3.50
2023-10-23T01:39:06.996Z,3.20
2023-10-23T01:41:35.409Z,3.70
2023-10-23T01:44:04.708Z,3.80
2023-10-23T01:46:32.611Z,3.60
2023-10-23T01:49:00.470Z,3.27
2023-10-23T01:51:28.860Z,3.60
2023-10-23T01:53:57.216Z,3.42
2023-10-23T01:56:25.423Z,3.33
2023-10-23T01:58:53.534Z,3.10
2023-10-23T02:01:24.131Z,3.10
2023-10-23T02:03:52.615Z,2.92
2023-10-23T02:06:20.616Z,3.63
2023-10-23T02:08:48.383Z,3.20
2023-10-23T02:11:16.346Z,3.40
2023-10-23T02:13:44.530Z,3.23
2023-10-23T02:16:12.442Z,3.72
2023-10-23T02:18:41.670Z,4.32
2023-10-23T02:21:09.818Z,3.22
2023-10-23T02:23:48.812Z,3.28
2023-10-23T02:26:21.485Z,3.20
2023-10-23T02:28:49.477Z,3.20
2023-10-23T02:31:17.583Z,3.40
2023-10-23T02:33:46.864Z,3.40
2023-10-23T02:36:16.330Z,3.40
2023-10-23T02:38:44.988Z,3.43
2023-10-23T02:41:12.895Z,3.30
2023-10-23T02:43:40.664Z,3.08
2023-10-23T02:46:08.670Z,3.30
2023-10-23T02:48:36.495Z,3.47
2023-10-23T02:51:06.115Z,3.20
2023-10-23T02:53:33.954Z,2.75
2023-10-23T02:56:01.896Z,3.20
2023-10-23T02:58:29.858Z,3.13
2023-10-23T03:00:57.686Z,3.33
2023-10-23T03:03:25.625Z,3.70
2023-10-23T03:05:53.541Z,3.20
2023-10-23T03:08:22.672Z,3.55
2023-10-23T03:10:50.461Z,3.00
2023-10-23T03:13:18.202Z,3.75
2023-10-23T03:15:46.259Z,3.23
2023-10-23T03:18:14.068Z,3.00
2023-10-23T03:20:42.883Z,3.20
2023-10-23T03:23:10.704Z,3.00
2023-10-23T03:25:39.810Z,3.40
2023-10-23T03:28:07.575Z,2.70
2023-10-23T03:30:35.367Z,3.55
2023-10-23T03:33:04.031Z,3.00
2023-10-23T03:35:32.598Z,2.90
2023-10-23T03:38:00.355Z,2.65
2023-10-23T03:40:28.961Z,2.80
2023-10-23T03:42:58.114Z,2.88
2023-10-23T03:45:25.953Z,3.20
2023-10-23T03:47:53.689Z,2.60
2023-10-23T03:50:21.521Z,3.03
2023-10-23T03:52:49.304Z,3.17
2023-10-23T03:55:17.222Z,3.00
2023-10-23T03:57:45.007Z,2.70
2023-10-23T04:00:15.106Z,2.97
2023-10-23T04:02:42.985Z,3.10
2023-10-23T04:05:10.760Z,2.80
2023-10-23T04:07:38.495Z,2.97
2023-10-23T04:10:08.350Z,2.78
2023-10-23T04:12:36.161Z,3.00
2023-10-23T04:15:04.399Z,3.08
2023-10-23T04:17:34.071Z,3.00
2023-10-23T04:20:01.874Z,3.40
2023-10-23T04:22:29.664Z,3.40
2023-10-23T04:24:58.177Z,3.03
2023-10-23T04:27:25.927Z,3.08
2023-10-23T04:29:54.489Z,3.03
2023-10-23T04:32:22.252Z,2.90
2023-10-23T04:34:51.388Z,3.00
2023-10-23T04:37:19.200Z,3.58
2023-10-23T04:39:46.970Z,4.28
2023-10-23T04:42:14.852Z,4.53
2023-10-23T04:44:42.703Z,3.70
2023-10-23T04:47:10.480Z,3.85
2023-10-23T04:49:38.535Z,3.00
2023-10-23T04:52:08.451Z,3.33
2023-10-23T04:54:36.282Z,3.47
2023-10-23T04:57:04.189Z,3.50
2023-10-23T04:59:32.114Z,3.75
2023-10-23T05:01:59.869Z,3.60
2023-10-23T05:04:30.739Z,3.20
2023-10-23T05:06:58.999Z,3.23
2023-10-23T05:09:28.231Z,3.17
2023-10-23T05:11:56.110Z,3.50
2023-10-23T05:14:34.497Z,3.30
2023-10-23T05:17:02.306Z,3.28
2023-10-23T05:19:30.420Z,3.50
2023-10-23T05:21:58.253Z,3.50
2023-10-23T05:24:27.377Z,3.45
2023-10-23T05:26:57.194Z,3.38
2023-10-23T05:29:24.984Z,3.42
2023-10-23T05:31:52.697Z,3.57
2023-10-23T05:34:20.501Z,3.67
2023-10-23T05:36:49.112Z,3.40
2023-10-23T05:39:17.293Z,3.20
2023-10-23T05:41:45.019Z,4.00
2023-10-23T05:44:14.334Z,3.93
2023-10-23T05:46:42.100Z,3.60
2023-10-23T05:49:10.003Z,4.45
2023-10-23T05:51:37.968Z,4.22
2023-10-23T05:54:06.270Z,4.13
2023-10-23T05:56:34.086Z,4.13
2023-10-23T05:59:01.840Z,4.00
2023-10-23T06:01:31.391Z,4.32
2023-10-23T06:03:59.349Z,3.90
2023-10-23T06:06:27.983Z,4.47
2023-10-23T06:08:55.881Z,4.50
2023-10-23T06:11:24.639Z,4.85
2023-10-23T06:13:52.520Z,4.55
2023-10-23T06:16:20.507Z,4.53
2023-10-23T06:18:49.706Z,4.88
2023-10-23T06:21:17.549Z,5.40
2023-10-23T06:23:45.361Z,5.63
2023-10-23T06:26:13.286Z,6.10
2023-10-23T06:28:41.200Z,6.20
2023-10-23T06:31:10.343Z,6.40
2023-10-23T06:33:40.134Z,6.83
2023-10-23T06:36:10.377Z,6.68
2023-10-23T06:38:38.499Z,6.63
2023-10-23T06:41:06.858Z,6.60
2023-10-23T06:43:35.117Z,6.13
2023-10-23T06:46:04.650Z,7.07
2023-10-23T06:48:32.977Z,6.15
2023-10-23T06:51:01.541Z,6.00
2023-10-23T06:53:30.779Z,6.88
2023-10-23T06:55:58.654Z,6.05
2023-10-23T06:58:26.447Z,6.23
2023-10-23T07:00:54.278Z,6.68
2023-10-23T07:03:22.232Z,6.45
2023-10-23T07:05:50.189Z,6.15
2023-10-23T07:08:18.031Z,7.40
2023-10-23T07:10:47.138Z,6.97
2023-10-23T07:13:22.040Z,7.00
2023-10-23T07:15:50.516Z,8.38
2023-10-23T07:18:19.045Z,11.40
2023-10-23T07:20:54.508Z,11.10
2023-10-23T07:23:23.372Z,10.67
2023-10-23T07:26:01.725Z,10.20
2023-10-23T07:28:29.537Z,9.77
2023-10-23T07:30:59.257Z,10.60
2023-10-23T07:33:27.107Z,9.93
2023-10-23T07:36:04.896Z,11.13
2023-10-23T07:38:33.413Z,11.20
2023-10-23T07:41:02.665Z,11.50
2023-10-23T07:43:31.287Z,8.90
2023-10-23T07:48:30.734Z,8.87
2023-10-23T07:51:00.426Z,8.82
2023-10-23T07:53:28.534Z,8.20
2023-10-23T07:55:56.350Z,8.35
2023-10-23T07:58:25.520Z,7.18
2023-10-23T08:01:02.501Z,7.60
2023-10-23T08:03:30.379Z,7.45
2023-10-23T08:05:58.275Z,7.60
2023-10-23T08:08:26.384Z,7.75
2023-10-23T08:10:54.212Z,7.78
2023-10-23T08:13:22.011Z,7.27
2023-10-23T08:15:53.472Z,7.10
2023-10-23T08:18:36.504Z,7.30
2023-10-23T08:21:11.279Z,7.63
2023-10-23T08:23:39.240Z,7.07
2023-10-23T08:26:07.100Z,6.97
2023-10-23T08:28:58.600Z,7.00
2023-10-23T08:31:38.452Z,7.07
2023-10-23T08:34:07.900Z,7.03
2023-10-23T08:36:36.287Z,6.43
2023-10-23T08:39:04.873Z,6.27
2023-10-23T08:41:35.258Z,6.35
2023-10-23T08:44:04.230Z,5.70
2023-10-23T08:46:34.917Z,6.22
2023-10-23T08:49:03.826Z,6.75
2023-10-23T08:51:39.593Z,6.33
2023-10-23T08:54:19.795Z,6.25
2023-10-23T08:56:55.055Z,6.32
2023-10-23T08:59:23.084Z,6.45
2023-10-23T09:01:52.478Z,6.75
2023-10-23T09:04:20.479Z,6.73
2023-10-23T09:06:48.793Z,6.90
2023-10-23T09:09:17.888Z,6.90
2023-10-23T09:11:48.594Z,6.57
2023-10-23T09:14:25.959Z,7.07
2023-10-23T09:16:56.953Z,7.13
2023-10-23T09:19:26.639Z,6.75
2023-10-23T09:21:58.501Z,7.28
2023-10-23T09:24:26.738Z,7.22
2023-10-23T09:26:54.558Z,7.68
2023-10-23T09:29:29.308Z,7.50
2023-10-23T09:32:00.904Z,8.65
2023-10-23T09:34:30.682Z,8.40
2023-10-23T09:36:58.791Z,8.32
2023-10-23T09:39:26.637Z,7.40
2023-10-23T09:41:54.590Z,7.60
2023-10-23T09:44:25.325Z,7.55
2023-10-23T09:46:54.132Z,7.55
2023-10-23T09:49:25.326Z,8.13
2023-10-23T09:51:58.057Z,8.00
2023-10-23T09:54:26.744Z,7.87
2023-10-23T09:56:55.888Z,8.10
2023-10-23T09:59:28.172Z,8.32
2023-10-23T10:02:01.654Z,8.68
2023-10-23T10:04:38.871Z,7.95
2023-10-23T10:07:10.936Z,7.53
2023-10-23T10:09:40.201Z,7.40
2023-10-23T10:12:08.818Z,7.40
2023-10-23T10:14:37.082Z,7.90
2023-10-23T10:17:05.818Z,7.72
2023-10-23T10:19:35.621Z,7.37
2023-10-23T10:22:08.950Z,7.47
2023-10-23T10:24:38.245Z,7.38
2023-10-23T10:27:07.367Z,7.88
2023-10-23T10:29:35.223Z,7.35
2023-10-23T10:32:10.991Z,7.60
2023-10-23T10:34:56.897Z,8.48
2023-10-23T10:37:28.281Z,7.65
2023-10-23T10:40:07.540Z,8.32
2023-10-23T10:42:40.564Z,8.05
2023-10-23T10:45:16.529Z,8.57
2023-10-23T10:47:47.570Z,7.55
2023-10-23T10:50:39.837Z,7.82
2023-10-23T10:53:09.058Z,7.55
2023-10-23T10:55:38.829Z,7.78
2023-10-23T10:58:07.876Z,7.70
2023-10-23T11:00:39.280Z,7.03
2023-10-23T11:03:08.737Z,7.10
2023-10-23T11:05:39.461Z,7.35
2023-10-23T11:08:07.459Z,8.05
2023-10-23T11:10:35.524Z,7.93
2023-10-23T11:13:03.307Z,8.57
2023-10-23T11:15:31.571Z,7.53
2023-10-23T11:17:59.443Z,8.27
2023-10-23T11:20:32.059Z,8.00
2023-10-23T11:23:01.902Z,8.60
2023-10-23T11:25:30.144Z,8.82
2023-10-23T11:27:58.267Z,9.40
2023-10-23T11:30:27.706Z,9.10
2023-10-23T11:32:55.902Z,9.52
2023-10-23T11:35:23.902Z,7.73
2023-10-23T11:37:51.618Z,9.52
2023-10-23T11:40:23.454Z,8.98
2023-10-23T11:42:54.924Z,10.32
2023-10-23T11:45:23.833Z,9.27
2023-10-23T11:47:53.363Z,10.07
2023-10-23T11:50:23.028Z,10.02
2023-10-23T11:52:51.369Z,10.02
2023-10-23T11:55:20.733Z,9.80
2023-10-23T11:57:51.844Z,10.52
2023-10-23T12:00:22.095Z,10.57
2023-10-23T12:02:50.807Z,9.55
2023-10-23T12:05:20.207Z,10.60
2023-10-23T12:07:49.702Z,11.18
2023-10-23T12:10:18.883Z,11.07
2023-10-23T12:12:47.678Z,11.40
2023-10-23T12:15:17.674Z,10.95
2023-10-23T12:17:45.468Z,12.07
2023-10-23T12:20:15.425Z,11.98
2023-10-23T12:22:44.817Z,10.40
2023-10-23T12:25:13.080Z,11.73
2023-10-23T12:27:41.885Z,11.32
2023-10-23T12:30:13.792Z,10.32
2023-10-23T12:33:14.302Z,10.00
2023-10-23T12:35:37.856Z,10.20
2023-10-23T12:38:06.822Z,10.23
2023-10-23T12:40:37.289Z,10.07
2023-10-23T12:43:05.745Z,10.35
2023-10-23T12:45:34.228Z,10.30
2023-10-23T12:48:14.045Z,9.50
2023-10-23T12:50:46.577Z,9.17
2023-10-23T12:53:17.555Z,8.75
2023-10-23T12:55:49.002Z,8.85
2023-10-23T12:58:17.690Z,8.20
2023-10-23T13:00:49.904Z,9.02
2023-10-23T13:03:20.044Z,8.83
2023-10-23T13:05:48.931Z,8.95
2023-10-23T13:08:17.898Z,8.63
2023-10-23T13:10:48.952Z,8.15
2023-10-23T13:13:21.666Z,8.30
2023-10-23T13:15:49.572Z,8.33
2023-10-23T13:18:52.840Z,8.43
2023-10-23T13:21:33.772Z,7.53
2023-10-23T13:24:03.827Z,7.75
2023-10-23T13:29:48.859Z,8.17
2023-10-23T13:32:17.103Z,7.63
2023-10-23T13:34:46.202Z,7.28
2023-10-23T13:37:14.905Z,7.50
2023-10-23T13:39:42.804Z,7.15
2023-10-23T13:42:11.074Z,6.63
2023-10-23T13:44:39.335Z,7.30
2023-10-23T13:47:08.406Z,7.30
2023-10-23T13:49:36.857Z,6.43
2023-10-23T13:52:06.349Z,7.07
2023-10-23T13:54:35.507Z,7.33
2023-10-23T13:57:03.953Z,7.38
2023-10-23T13:59:31.879Z,7.13
2023-10-23T14:01:59.880Z,7.35
2023-10-23T14:04:27.812Z,7.50
2023-10-23T14:06:55.663Z,7.13
2023-10-23T14:09:40.157Z,7.07
2023-10-23T14:12:13.069Z,6.30
2023-10-23T14:14:41.742Z,6.75
2023-10-23T14:17:10.487Z,6.18
2023-10-23T14:19:48.068Z,6.80
2023-10-23T14:22:16.991Z,6.57
2023-10-23T14:24:46.451Z,6.68
2023-10-23T14:27:15.235Z,7.03
2023-10-23T14:29:43.825Z,6.97
2023-10-23T14:32:12.624Z,7.30
2023-10-23T14:34:42.310Z,7.45
2023-10-23T14:37:11.532Z,7.28
2023-10-23T14:39:41.226Z,7.38
2023-10-23T14:42:11.745Z,7.68
2023-10-23T14:44:40.905Z,7.83
2023-10-23T14:47:10.517Z,8.00
2023-10-23T14:49:39.685Z,6.95
2023-10-23T14:52:08.700Z,7.63
2023-10-23T14:54:38.180Z,7.55
2023-10-23T14:57:07.234Z,7.77
2023-10-23T14:59:41.696Z,7.88
2023-10-23T15:02:12.274Z,8.32
2023-10-23T15:04:40.881Z,8.23
2023-10-23T15:07:09.025Z,8.55
2023-10-23T15:09:37.598Z,8.80
2023-10-23T15:12:07.607Z,7.68
2023-10-23T15:14:37.616Z,8.50
2023-10-23T15:17:06.374Z,8.30
2023-10-23T15:19:34.849Z,8.23
2023-10-23T15:22:02.871Z,9.57
2023-10-23T15:24:31.490Z,9.23
2023-10-23T15:27:00.497Z,9.00
2023-10-23T15:29:29.025Z,8.73
2023-10-23T15:31:59.134Z,8.70
2023-10-23T15:34:28.508Z,10.10
2023-10-23T15:36:57.516Z,9.93
2023-10-23T15:39:26.238Z,10.23
2023-10-23T15:41:54.526Z,10.38
2023-10-23T15:44:22.925Z,10.48
2023-10-23T15:46:51.641Z,12.23
2023-10-23T15:49:21.306Z,11.10
2023-10-23T15:51:49.550Z,10.98
2023-10-23T15:54:18.588Z,12.18
2023-10-23T15:56:47.197Z,11.18
2023-10-23T15:59:19.107Z,11.03
2023-10-23T16:01:47.363Z,12.20
2023-10-23T16:04:15.545Z,11.32
2023-10-23T16:06:45.957Z,11.75
2023-10-23T16:09:22.183Z,11.63
2023-10-23T16:11:54.669Z,12.20
2023-10-23T16:14:25.740Z,11.73
2023-10-23T16:16:57.367Z,11.23
2023-10-23T16:19:27.682Z,11.68
2023-10-23T16:21:57.642Z,11.27
2023-10-23T16:24:27.365Z,12.53
2023-10-23T16:27:23.428Z,12.68
2023-10-23T16:29:55.936Z,11.50
2023-10-23T16:32:27.779Z,12.48
2023-10-23T16:34:58.796Z,11.52
2023-10-23T16:37:29.687Z,11.87
2023-10-23T16:39:59.430Z,11.95
2023-10-23T16:42:27.991Z,12.57
2023-10-23T16:44:56.961Z,13.63
2023-10-23T16:47:25.624Z,12.70
2023-10-23T16:49:56.087Z,13.17
2023-10-23T16:52:25.627Z,13.70
2023-10-23T16:54:55.733Z,13.85
2023-10-23T16:57:23.677Z,13.10
2023-10-23T16:59:51.878Z,13.70
2023-10-23T17:02:20.049Z,14.57
2023-10-23T17:04:49.427Z,14.10
2023-10-23T17:07:18.455Z,13.20
2023-10-23T17:09:47.811Z,13.93
2023-10-23T17:12:17.769Z,13.70
2023-10-23T17:14:46.413Z,13.47
2023-10-23T17:17:14.459Z,13.88
2023-10-23T17:19:44.625Z,13.27
2023-10-23T17:22:16.208Z,13.27
2023-10-23T17:24:45.008Z,13.65
2023-10-23T17:27:14.253Z,13.13
2023-10-23T17:29:44.822Z,13.75
2023-10-23T17:32:23.501Z,14.45
2023-10-23T17:34:55.224Z,13.57
2023-10-23T17:37:23.746Z,13.02
2023-10-23T17:39:52.283Z,13.60
2023-10-23T17:42:23.934Z,13.15
2023-10-23T17:44:53.938Z,12.55
2023-10-23T17:47:22.891Z,13.38
2023-10-23T17:49:54.619Z,13.38
2023-10-23T17:52:25.316Z,14.20
2023-10-23T17:54:53.136Z,12.48
2023-10-23T17:57:31.152Z,13.55
2023-10-23T18:00:01.894Z,13.82
2023-10-23T18:02:32.904Z,13.52
2023-10-23T18:05:01.108Z,13.90
2023-10-23T18:07:28.965Z,13.85
2023-10-23T18:09:56.884Z,12.93
2023-10-23T18:12:37.448Z,13.48
2023-10-23T18:15:08.633Z,13.73
2023-10-23T18:17:36.723Z,13.97
2023-10-23T18:20:05.057Z,15.18
2023-10-23T18:22:33.045Z,15.82
2023-10-23T18:25:01.186Z,16.08
2023-10-23T18:27:29.203Z,16.08
2023-10-23T18:29:57.214Z,15.73
2023-10-23T18:32:27.636Z,15.82
2023-10-23T18:34:57.181Z,15.65
2023-10-23T18:37:25.170Z,15.35
2023-10-23T18:39:56.071Z,15.75
2023-10-23T18:42:24.832Z,14.90
2023-10-23T18:44:52.685Z,14.73
2023-10-23T18:47:22.147Z,15.15
2023-10-23T18:49:52.333Z,13.75
2023-10-23T18:52:20.184Z,14.15
2023-10-23T18:54:49.005Z,14.27
2023-10-23T18:57:16.889Z,14.65
2023-10-23T18:59:47.120Z,14.13
2023-10-23T19:02:15.153Z,14.07
2023-10-23T19:04:43.217Z,15.18
2023-10-23T19:07:12.828Z,13.40
2023-10-23T19:09:41.003Z,14.10
2023-10-23T19:12:09.597Z,13.23
2023-10-23T19:14:37.442Z,13.07
2023-10-23T19:17:05.780Z,13.75
2023-10-23T19:19:33.886Z,12.57
2023-10-23T19:22:02.871Z,12.75
2023-10-23T19:24:32.092Z,12.77
2023-10-23T19:27:00.239Z,12.40
2023-10-23T19:29:28.578Z,12.93
2023-10-23T19:31:56.910Z,12.53
2023-10-23T19:34:25.350Z,11.68
2023-10-23T19:37:01.845Z,12.82
2023-10-23T19:39:33.253Z,11.75
2023-10-23T19:42:05.495Z,13.52
2023-10-23T19:44:34.225Z,13.07
2023-10-23T19:47:14.048Z,13.18
2023-10-23T19:49:45.422Z,13.07
2023-10-23T19:52:17.418Z,12.77
2023-10-23T19:54:50.376Z,12.63
2023-10-23T19:57:27.221Z,11.70
2023-10-23T19:59:56.591Z,12.27
2023-10-23T20:02:28.971Z,12.02
2023-10-23T20:05:06.121Z,12.75
2023-10-23T20:07:37.882Z,11.25
2023-10-23T20:10:09.620Z,12.33
2023-10-23T20:12:40.119Z,11.05
2023-10-23T20:15:14.568Z,11.20
2023-10-23T20:17:46.152Z,11.40
2023-10-23T20:20:14.918Z,11.98
2023-10-23T20:22:44.864Z,11.33
2023-10-23T20:25:15.621Z,11.95
2023-10-23T20:27:45.807Z,11.38
2023-10-23T20:30:19.874Z,11.65
2023-10-23T20:32:48.476Z,11.20
2023-10-23T20:35:16.952Z,12.27
2023-10-23T20:37:47.112Z,12.20
2023-10-23T20:40:16.374Z,11.85
2023-10-23T20:43:24.693Z,10.90
2023-10-23T20:45:56.152Z,10.40
2023-10-23T20:48:25.813Z,10.57
2023-10-23T20:50:54.983Z,10.82
2023-10-23T20:53:24.689Z,11.27
2023-10-23T20:55:55.963Z,11.27
2023-10-23T20:58:25.475Z,11.38
2023-10-23T21:00:53.411Z,11.47
2023-10-23T21:03:33.434Z,11.88
2023-10-23T21:06:07.029Z,11.93
2023-10-23T21:08:40.720Z,10.82
2023-10-23T21:11:10.697Z,11.90
2023-10-23T21:13:40.106Z,11.80
2023-10-23T21:16:11.226Z,10.70
2023-10-23T21:18:40.046Z,11.45
2023-10-23T21:21:08.926Z,10.63
2023-10-23T21:23:38.114Z,11.02
2023-10-23T21:26:06.266Z,11.30
2023-10-23T21:28:35.629Z,11.02
2023-10-23T21:31:03.936Z,11.70
2023-10-23T21:33:33.168Z,10.80
2023-10-23T21:36:03.256Z,10.82
2023-10-23T21:38:32.979Z,12.63
2023-10-23T21:41:01.224Z,12.32
2023-10-23T21:43:30.267Z,11.50
2023-10-23T21:46:16.666Z,12.20
2023-10-23T21:48:45.840Z,11.13
2023-10-23T21:51:14.248Z,10.33
2023-10-23T21:53:43.309Z,11.85
2023-10-23T21:56:20.508Z,10.27
2023-10-23T21:59:11.853Z,10.65
2023-10-23T22:01:43.925Z,10.38
2023-10-23T22:04:15.438Z,11.17
2023-10-23T22:06:48.668Z,10.00
2023-10-23T22:09:17.752Z,11.35
2023-10-23T22:11:47.057Z,11.75
2023-10-23T22:14:16.139Z,12.02
2023-10-23T22:16:45.957Z,11.03
2023-10-23T22:19:14.353Z,11.38
2023-10-23T22:21:42.850Z,12.32
2023-10-23T22:24:11.228Z,11.35
2023-10-23T22:26:39.714Z,11.60
2023-10-23T22:29:08.219Z,12.17
2023-10-23T22:31:36.403Z,10.70
2023-10-23T22:34:05.690Z,11.48
2023-10-23T22:36:33.673Z,11.00
2023-10-23T22:39:01.844Z,12.85
2023-10-23T22:41:29.860Z,10.97
2023-10-23T22:43:57.906Z,11.15
2023-10-23T22:46:26.077Z,11.05
2023-10-23T22:48:54.770Z,10.55
2023-10-23T22:51:25.377Z,11.05
2023-10-23T22:53:53.872Z,10.97
2023-10-23T22:56:24.394Z,11.80
2023-10-23T22:58:53.099Z,11.27
2023-10-23T23:01:22.816Z,10.45
2023-10-23T23:03:51.862Z,10.45
2023-10-23T23:06:23.273Z,10.70
2023-10-23T23:08:53.350Z,11.05
2023-10-23T23:11:22.203Z,10.13
2023-10-23T23:13:54.451Z,10.38
2023-10-23T23:16:23.144Z,10.73
2023-10-23T23:18:55.197Z,11.00
2023-10-23T23:21:24.919Z,11.45
2023-10-23T23:23:54.821Z,10.77
2023-10-23T23:26:23.097Z,10.73
2023-10-23T23:28:51.177Z,11.10
2023-10-23T23:31:19.391Z,10.17
2023-10-23T23:33:50.432Z,10.95
2023-10-23T23:36:18.560Z,9.50
2023-10-23T23:38:46.484Z,10.30
2023-10-23T23:41:16.196Z,11.25
2023-10-23T23:43:44.855Z,11.43
2023-10-23T23:46:13.158Z,10.40
2023-10-23T23:48:41.167Z,10.25
2023-10-23T23:51:09.049Z,10.45
2023-10-23T23:53:37.091Z,10.35
2023-10-23T23:56:06.308Z,11.07
2023-10-23T23:58:36.483Z,10.60
